createdAt,value
2018-09-24T00:01:34.175Z,95.51
2018-09-24T00:04:01.144Z,95.84
2018-09-24T00:06:28.295Z,97.14
2018-09-24T00:08:55.476Z,95.43
2018-09-24T00:11:22.478Z,95.64
2018-09-24T00:13:49.434Z,95.27
2018-09-24T00:16:17.293Z,95.92
2018-09-24T00:18:44.729Z,95.91
2018-09-24T00:21:11.712Z,96.17
2018-09-24T00:23:38.814Z,96.28
2018-09-24T00:26:05.971Z,96.02
2018-09-24T00:28:33.304Z,96.20
2018-09-24T00:31:00.391Z,96.54
2018-09-24T00:33:27.368Z,95.48
2018-09-24T00:35:54.363Z,95.76
2018-09-24T00:38:21.339Z,95.39
2018-09-24T00:40:48.896Z,95.96
2018-09-24T00:43:15.945Z,95.16
2018-09-24T00:45:42.888Z,95.63
2018-09-24T00:48:10.194Z,94.97
2018-09-24T00:50:37.244Z,95.08
2018-09-24T00:53:04.240Z,94.52
2018-09-24T00:55:31.875Z,94.12
2018-09-24T00:57:58.928Z,93.45
2018-09-24T01:00:25.996Z,92.56
2018-09-24T01:02:53.012Z,93.01
2018-09-24T01:05:19.993Z,92.52
2018-09-24T01:07:46.967Z,91.02
2018-09-24T01:10:14.136Z,91.26
2018-09-24T01:12:41.385Z,90.27
2018-09-24T01:15:09.083Z,88.59
2018-09-24T01:17:36.140Z,88.70
2018-09-24T01:20:03.293Z,88.89
2018-09-24T01:22:30.279Z,87.90
2018-09-24T01:24:57.421Z,88.18
2018-09-24T01:27:24.411Z,89.04
2018-09-24T01:29:51.386Z,89.28
2018-09-24T01:32:19.394Z,89.47
2018-09-24T01:34:47.393Z,89.26
2018-09-24T01:37:14.461Z,89.47
2018-09-24T01:39:41.447Z,91.05
2018-09-24T01:42:08.442Z,88.16
2018-09-24T01:44:35.491Z,88.86
2018-09-24T01:47:02.555Z,90.40
2018-09-24T01:49:29.896Z,89.67
2018-09-24T01:51:56.995Z,89.67
2018-09-24T01:54:28.795Z,91.16
2018-09-24T01:56:55.807Z,91.66
2018-09-24T01:59:22.928Z,93.28
2018-09-24T02:01:49.951Z,93.85
2018-09-24T02:04:16.947Z,93.96
2018-09-24T02:06:44.091Z,94.80
2018-09-24T02:09:11.162Z,95.25
2018-09-24T02:11:38.336Z,94.95
2018-09-24T02:14:06.423Z,95.14
2018-09-24T02:16:33.481Z,95.69
2018-09-24T02:19:00.659Z,95.54
2018-09-24T02:21:27.863Z,95.71
2018-09-24T02:23:59.556Z,95.96
2018-09-24T02:26:26.583Z,96.20
2018-09-24T02:28:54.008Z,96.39
2018-09-24T02:31:20.985Z,96.80
2018-09-24T02:33:47.960Z,96.64
2018-09-24T02:36:14.947Z,96.42
2018-09-24T02:38:41.903Z,96.84
2018-09-24T02:41:09.054Z,97.24
2018-09-24T02:43:36.361Z,97.32
2018-09-24T02:46:03.531Z,97.67
2018-09-24T02:48:30.495Z,97.70
2018-09-24T02:50:57.712Z,97.54
2018-09-24T02:53:24.700Z,97.84
2018-09-24T02:55:51.691Z,97.92
2018-09-24T02:58:20.199Z,100.00
2018-09-24T03:00:47.279Z,96.52
2018-09-24T03:03:14.269Z,97.81
2018-09-24T03:05:41.832Z,96.73
2018-09-24T03:08:10.413Z,96.73
2018-09-24T03:10:39.825Z,97.67
2018-09-24T03:13:06.848Z,97.59
2018-09-24T03:15:37.601Z,97.65
2018-09-24T03:18:05.048Z,97.71
2018-09-24T03:20:35.019Z,97.63
2018-09-24T03:23:02.403Z,98.50
2018-09-24T03:25:29.383Z,98.76
2018-09-24T03:27:58.177Z,99.05
2018-09-24T03:30:30.332Z,99.06
2018-09-24T03:32:57.883Z,99.10
2018-09-24T03:35:24.859Z,99.34
2018-09-24T03:37:52.483Z,99.36
2018-09-24T03:40:19.493Z,99.08
2018-09-24T03:42:46.477Z,99.41
2018-09-24T03:45:13.461Z,98.85
2018-09-24T03:47:40.459Z,98.46
2018-09-24T03:50:07.453Z,97.82
2018-09-24T03:52:34.419Z,97.61
2018-09-24T03:55:01.493Z,97.20
2018-09-24T03:57:28.569Z,96.95
2018-09-24T03:59:55.717Z,96.70
2018-09-24T04:02:24.326Z,96.57
2018-09-24T04:04:58.433Z,96.41
2018-09-24T04:07:31.209Z,95.31
2018-09-24T04:10:07.528Z,95.18
2018-09-24T04:12:41.664Z,94.40
2018-09-24T04:15:14.328Z,95.28
2018-09-24T04:17:47.076Z,95.15
2018-09-24T04:20:19.740Z,93.49
2018-09-24T04:22:52.400Z,93.05
2018-09-24T04:25:25.028Z,93.20
2018-09-24T04:27:57.759Z,93.62
2018-09-24T04:30:30.376Z,94.06
2018-09-24T04:33:03.304Z,93.55
2018-09-24T04:35:36.212Z,94.02
2018-09-24T04:38:08.903Z,93.71
2018-09-24T04:40:41.823Z,94.11
2018-09-24T04:43:14.842Z,94.33
2018-09-24T04:45:47.748Z,94.07
2018-09-24T04:48:20.455Z,94.61
2018-09-24T04:50:53.178Z,94.28
2018-09-24T04:53:25.877Z,93.12
2018-09-24T04:55:58.635Z,93.05
2018-09-24T04:58:31.254Z,92.92
2018-09-24T05:01:04.039Z,93.47
2018-09-24T05:03:36.735Z,91.40
2018-09-24T05:06:09.488Z,92.19
2018-09-24T05:08:42.419Z,92.13
2018-09-24T05:11:15.435Z,91.95
2018-09-24T05:13:48.302Z,91.77
2018-09-24T05:16:21.574Z,90.89
2018-09-24T05:18:54.185Z,90.39
2018-09-24T05:21:27.702Z,89.99
2018-09-24T05:24:00.361Z,89.35
2018-09-24T05:26:33.405Z,89.14
2018-09-24T05:29:06.174Z,89.05
2018-09-24T05:31:38.916Z,89.52
2018-09-24T05:34:11.634Z,89.72
2018-09-24T05:36:44.252Z,89.64
2018-09-24T05:39:16.865Z,91.42
2018-09-24T05:41:49.627Z,90.40
2018-09-24T05:44:22.619Z,90.77
2018-09-24T05:46:55.348Z,91.76
2018-09-24T05:49:28.624Z,94.13
2018-09-24T05:52:01.700Z,96.73
2018-09-24T05:54:34.388Z,97.17
2018-09-24T05:57:07.857Z,98.62
2018-09-24T05:59:40.790Z,94.86
2018-09-24T06:02:13.956Z,95.87
2018-09-24T06:04:46.748Z,96.82
2018-09-24T06:07:19.708Z,96.68
2018-09-24T06:09:52.401Z,95.65
2018-09-24T06:12:25.362Z,95.32
2018-09-24T06:14:58.111Z,93.04
2018-09-24T06:17:30.857Z,92.36
2018-09-24T06:20:03.546Z,91.32
2018-09-24T06:22:36.496Z,89.25
2018-09-24T06:25:09.251Z,89.00
2018-09-24T06:27:42.159Z,88.73
2018-09-24T06:30:15.115Z,89.46
2018-09-24T06:32:47.804Z,88.66
2018-09-24T06:35:20.432Z,88.25
2018-09-24T06:37:53.355Z,86.76
2018-09-24T06:40:26.499Z,86.25
2018-09-24T06:42:59.184Z,86.44
2018-09-24T06:45:32.507Z,86.91
2018-09-24T06:48:05.424Z,86.43
2018-09-24T06:50:38.137Z,88.27
2018-09-24T06:53:10.773Z,92.55
2018-09-24T06:55:43.613Z,95.10
2018-09-24T06:58:16.466Z,94.73
2018-09-24T07:00:49.548Z,93.72
2018-09-24T07:03:22.519Z,94.65
2018-09-24T07:05:55.623Z,92.87
2018-09-24T07:08:28.582Z,93.74
2018-09-24T07:11:01.312Z,93.32
2018-09-24T07:13:33.929Z,92.92
2018-09-24T07:16:07.373Z,91.57
2018-09-24T07:18:46.885Z,92.62
2018-09-24T07:21:19.662Z,90.08
2018-09-24T07:23:52.272Z,90.52
2018-09-24T07:26:25.116Z,90.53
2018-09-24T07:28:57.827Z,89.77
2018-09-24T07:31:30.519Z,89.42
2018-09-24T07:34:03.996Z,86.35
2018-09-24T07:36:36.896Z,87.43
2018-09-24T07:39:14.739Z,87.26
2018-09-24T07:41:49.231Z,86.03
2018-09-24T07:44:21.999Z,86.02
2018-09-24T07:46:54.947Z,84.96
2018-09-24T07:49:27.859Z,84.12
2018-09-24T07:52:01.055Z,83.97
2018-09-24T07:54:34.011Z,83.68
2018-09-24T07:57:06.808Z,83.45
2018-09-24T07:59:39.425Z,82.90
2018-09-24T08:02:12.493Z,83.06
2018-09-24T08:04:45.131Z,79.22
2018-09-24T08:07:17.982Z,79.94
2018-09-24T08:09:50.612Z,77.93
2018-09-24T08:12:24.535Z,75.91
2018-09-24T08:14:57.313Z,74.48
2018-09-24T08:17:30.191Z,74.65
2018-09-24T08:20:02.903Z,73.94
2018-09-24T08:22:35.575Z,71.72
2018-09-24T08:25:08.251Z,72.95
2018-09-24T08:27:41.083Z,76.99
2018-09-24T08:30:13.688Z,82.18
2018-09-24T08:32:46.680Z,81.21
2018-09-24T08:35:19.370Z,79.32
2018-09-24T08:37:52.574Z,82.06
2018-09-24T08:40:25.504Z,80.15
2018-09-24T08:42:58.445Z,78.17
2018-09-24T08:45:31.431Z,79.98
2018-09-24T08:48:04.504Z,80.74
2018-09-24T08:50:37.367Z,78.58
2018-09-24T08:53:11.055Z,77.85
2018-09-24T08:55:43.748Z,77.00
2018-09-24T08:58:16.502Z,77.40
2018-09-24T09:00:49.848Z,79.18
2018-09-24T09:03:22.855Z,75.42
2018-09-24T09:05:55.652Z,74.57
2018-09-24T09:08:28.462Z,71.42
2018-09-24T09:11:01.687Z,71.72
2018-09-24T09:13:34.544Z,70.58
2018-09-24T09:16:07.553Z,71.82
2018-09-24T09:18:40.439Z,71.45
2018-09-24T09:21:13.535Z,74.33
2018-09-24T09:23:46.380Z,70.37
2018-09-24T09:26:19.160Z,70.94
2018-09-24T09:28:51.787Z,72.64
2018-09-24T09:31:24.440Z,69.73
2018-09-24T09:33:57.440Z,68.65
2018-09-24T09:36:31.047Z,67.00
2018-09-24T09:39:03.956Z,68.64
2018-09-24T09:41:36.807Z,67.72
2018-09-24T09:44:09.507Z,68.16
2018-09-24T09:46:42.538Z,67.04
2018-09-24T09:49:15.159Z,67.62
2018-09-24T09:51:47.860Z,69.82
2018-09-24T09:54:20.796Z,69.40
2018-09-24T09:56:53.755Z,67.89
2018-09-24T09:59:26.473Z,67.68
2018-09-24T10:01:59.567Z,67.08
2018-09-24T10:04:32.211Z,65.11
2018-09-24T10:07:05.339Z,67.32
2018-09-24T10:09:39.012Z,67.95
2018-09-24T10:12:11.760Z,69.74
2018-09-24T10:14:44.679Z,71.73
2018-09-24T10:17:17.338Z,73.32
2018-09-24T10:19:50.202Z,73.94
2018-09-24T10:22:22.867Z,75.58
2018-09-24T10:24:55.542Z,75.83
2018-09-24T10:27:28.194Z,75.34
2018-09-24T10:30:00.844Z,76.53
2018-09-24T10:32:33.795Z,76.89
2018-09-24T10:35:06.436Z,76.56
2018-09-24T10:37:40.308Z,77.38
2018-09-24T10:40:13.431Z,74.62
2018-09-24T10:42:46.126Z,74.47
2018-09-24T10:45:18.996Z,71.57
2018-09-24T10:47:51.707Z,72.59
2018-09-24T10:50:24.551Z,72.31
2018-09-24T10:52:57.274Z,72.70
2018-09-24T10:55:30.075Z,71.27
2018-09-24T10:58:02.995Z,70.41
2018-09-24T11:00:35.819Z,71.33
2018-09-24T11:03:08.401Z,71.87
2018-09-24T11:05:41.069Z,72.72
2018-09-24T11:08:13.780Z,71.53
2018-09-24T11:10:46.538Z,72.89
2018-09-24T11:13:19.587Z,72.75
2018-09-24T11:15:52.468Z,72.09
2018-09-24T11:18:25.261Z,71.52
2018-09-24T11:20:58.083Z,70.72
2018-09-24T11:23:30.676Z,71.04
2018-09-24T11:26:03.347Z,69.86
2018-09-24T11:28:36.003Z,68.81
2018-09-24T11:31:08.680Z,70.60
2018-09-24T11:33:41.448Z,70.62
2018-09-24T11:36:14.288Z,69.49
2018-09-24T11:38:47.048Z,72.46
2018-09-24T11:41:19.715Z,68.10
2018-09-24T11:43:52.673Z,67.26
2018-09-24T11:46:25.332Z,64.76
2018-09-24T11:48:58.383Z,63.85
2018-09-24T11:51:31.084Z,64.47
2018-09-24T11:54:03.999Z,64.53
2018-09-24T11:56:36.767Z,65.32
2018-09-24T11:59:09.408Z,63.89
2018-09-24T12:01:42.220Z,64.10
2018-09-24T12:04:15.120Z,65.80
2018-09-24T12:06:47.836Z,64.75
2018-09-24T12:09:20.509Z,64.48
2018-09-24T12:11:53.368Z,66.29
2018-09-24T12:14:26.088Z,66.62
2018-09-24T12:16:58.699Z,66.31
2018-09-24T12:19:31.621Z,68.96
2018-09-24T12:22:04.207Z,67.23
2018-09-24T12:24:36.876Z,68.35
2018-09-24T12:27:09.639Z,69.25
2018-09-24T12:29:42.463Z,65.23
2018-09-24T12:32:15.291Z,64.69
2018-09-24T12:34:48.308Z,66.38
2018-09-24T12:37:20.999Z,60.11
2018-09-24T12:39:53.681Z,61.37
2018-09-24T12:42:26.334Z,68.71
2018-09-24T12:44:59.051Z,68.73
2018-09-24T12:47:31.987Z,70.70
2018-09-24T12:50:07.655Z,68.20
2018-09-24T12:52:40.397Z,68.57
2018-09-24T12:55:13.172Z,72.39
2018-09-24T12:57:45.883Z,68.47
2018-09-24T13:00:18.862Z,63.39
2018-09-24T13:02:51.480Z,64.30
2018-09-24T13:05:24.324Z,62.73
2018-09-24T13:07:57.239Z,62.38
2018-09-24T13:10:29.826Z,59.87
2018-09-24T13:13:02.752Z,63.46
2018-09-24T13:15:35.571Z,61.92
2018-09-24T13:18:08.503Z,63.07
2018-09-24T13:20:41.446Z,63.59
2018-09-24T13:23:14.143Z,56.67
2018-09-24T13:25:47.327Z,55.76
2018-09-24T13:28:19.947Z,56.05
2018-09-24T13:30:52.991Z,55.41
2018-09-24T13:33:25.568Z,59.54
2018-09-24T13:35:58.355Z,54.84
2018-09-24T13:38:31.011Z,57.23
2018-09-24T13:41:03.847Z,57.20
2018-09-24T13:43:36.496Z,55.75
2018-09-24T13:46:09.367Z,54.38
2018-09-24T13:48:41.980Z,55.13
2018-09-24T13:51:14.573Z,53.15
2018-09-24T13:53:47.233Z,56.62
2018-09-24T13:56:20.089Z,51.96
2018-09-24T13:58:52.666Z,52.72
2018-09-24T14:01:25.295Z,55.25
2018-09-24T14:03:58.136Z,54.80
2018-09-24T14:06:30.831Z,53.72
2018-09-24T14:09:03.499Z,55.43
2018-09-24T14:11:36.456Z,54.75
2018-09-24T14:14:09.108Z,56.15
2018-09-24T14:16:42.141Z,56.83
2018-09-24T14:19:15.068Z,54.86
2018-09-24T14:21:50.108Z,56.37
2018-09-24T14:24:25.200Z,59.82
2018-09-24T14:27:01.513Z,56.67
2018-09-24T14:29:34.403Z,56.25
2018-09-24T14:32:07.307Z,56.11
2018-09-24T14:34:40.196Z,57.04
2018-09-24T14:37:12.900Z,60.86
2018-09-24T14:39:46.846Z,58.68
2018-09-24T14:42:20.148Z,59.12
2018-09-24T14:44:54.175Z,58.82
2018-09-24T14:47:28.893Z,60.75
2018-09-24T14:50:05.709Z,61.56
2018-09-24T14:52:39.827Z,61.82
2018-09-24T14:55:14.883Z,62.64
2018-09-24T14:57:50.101Z,65.68
2018-09-24T15:00:23.559Z,66.99
2018-09-24T15:02:56.768Z,69.48
2018-09-24T15:05:29.420Z,72.58
2018-09-24T15:08:02.033Z,72.68
2018-09-24T15:10:36.020Z,70.06
2018-09-24T15:13:09.733Z,70.82
2018-09-24T15:15:42.723Z,68.61
2018-09-24T15:18:15.441Z,66.21
2018-09-24T15:20:48.550Z,67.24
2018-09-24T15:23:21.395Z,67.09
2018-09-24T15:25:54.600Z,66.95
2018-09-24T15:28:27.280Z,68.47
2018-09-24T15:30:59.959Z,68.79
2018-09-24T15:33:32.603Z,68.35
2018-09-24T15:36:05.487Z,68.59
2018-09-24T15:38:38.091Z,68.94
2018-09-24T15:41:10.816Z,70.64
2018-09-24T15:43:43.723Z,71.20
2018-09-24T15:46:17.162Z,70.57
2018-09-24T15:48:49.856Z,71.60
2018-09-24T15:51:22.627Z,71.96
2018-09-24T15:53:55.986Z,72.19
2018-09-24T15:56:28.962Z,71.74
2018-09-24T15:59:01.670Z,70.86
2018-09-24T16:01:34.741Z,71.59
2018-09-24T16:04:07.435Z,72.04
2018-09-24T16:06:40.855Z,72.28
2018-09-24T16:09:14.037Z,71.90
2018-09-24T16:11:47.111Z,72.99
2018-09-24T16:14:25.272Z,71.30
2018-09-24T16:16:58.511Z,72.48
2018-09-24T16:19:31.209Z,71.85
2018-09-24T16:22:04.063Z,72.62
2018-09-24T16:24:41.133Z,73.12
2018-09-24T16:27:19.816Z,73.46
2018-09-24T16:29:54.496Z,74.33
2018-09-24T16:32:29.973Z,75.81
2018-09-24T16:35:06.047Z,76.65
2018-09-24T16:37:39.344Z,77.40
2018-09-24T16:40:12.875Z,77.91
2018-09-24T16:42:47.918Z,79.30
2018-09-24T16:45:20.858Z,77.83
2018-09-24T16:47:53.731Z,78.68
2018-09-24T16:50:27.257Z,79.03
2018-09-24T16:53:00.385Z,78.89
2018-09-24T16:55:33.142Z,79.24
2018-09-24T16:58:06.069Z,79.52
2018-09-24T17:00:38.929Z,80.04
2018-09-24T17:03:11.832Z,81.19
2018-09-24T17:05:44.440Z,81.28
2018-09-24T17:08:17.588Z,81.41
2018-09-24T17:10:50.461Z,80.32
2018-09-24T17:13:23.634Z,81.63
2018-09-24T17:15:56.508Z,81.70
2018-09-24T17:18:29.397Z,81.25
2018-09-24T17:21:02.627Z,79.98
2018-09-24T17:23:35.575Z,77.55
2018-09-24T17:26:08.383Z,76.86
2018-09-24T17:28:41.340Z,77.46
2018-09-24T17:31:14.288Z,79.00
2018-09-24T17:33:46.996Z,78.00
2018-09-24T17:36:19.948Z,77.33
2018-09-24T17:38:52.873Z,77.97
2018-09-24T17:41:25.751Z,79.44
2018-09-24T17:43:59.278Z,78.66
2018-09-24T17:46:32.185Z,79.64
2018-09-24T17:49:05.124Z,80.32
2018-09-24T17:51:38.720Z,80.26
2018-09-24T17:54:13.378Z,85.02
2018-09-24T17:56:46.165Z,80.11
2018-09-24T17:59:19.255Z,81.09
2018-09-24T18:01:52.047Z,81.61
2018-09-24T18:04:25.032Z,82.43
2018-09-24T18:06:57.835Z,82.37
2018-09-24T18:09:31.005Z,82.96
2018-09-24T18:12:03.823Z,82.01
2018-09-24T18:14:36.503Z,81.66
2018-09-24T18:17:09.530Z,81.90
2018-09-24T18:19:42.374Z,82.54
2018-09-24T18:22:15.009Z,82.39
2018-09-24T18:24:47.901Z,83.42
2018-09-24T18:27:20.685Z,83.04
2018-09-24T18:29:53.517Z,82.70
2018-09-24T18:32:26.748Z,82.26
2018-09-24T18:34:59.429Z,81.42
2018-09-24T18:37:32.809Z,81.40
2018-09-24T18:40:05.535Z,81.13
2018-09-24T18:42:38.247Z,82.79
2018-09-24T18:45:11.131Z,82.43
2018-09-24T18:47:44.036Z,81.83
2018-09-24T18:50:16.825Z,80.88
2018-09-24T18:52:49.720Z,79.86
2018-09-24T18:55:22.432Z,80.98
2018-09-24T18:57:55.068Z,80.65
2018-09-24T19:00:27.769Z,82.12
2018-09-24T19:03:00.411Z,80.43
2018-09-24T19:05:33.024Z,81.50
2018-09-24T19:08:05.880Z,80.56
2018-09-24T19:10:38.579Z,80.50
2018-09-24T19:13:11.564Z,80.19
2018-09-24T19:15:44.270Z,82.78
2018-09-24T19:18:17.446Z,81.13
2018-09-24T19:20:50.225Z,82.01
2018-09-24T19:23:23.507Z,81.88
2018-09-24T19:25:56.279Z,82.69
2018-09-24T19:28:30.554Z,83.76
2018-09-24T19:31:03.239Z,83.12
2018-09-24T19:33:37.307Z,83.52
2018-09-24T19:36:10.063Z,82.88
2018-09-24T19:38:43.065Z,82.86
2018-09-24T19:41:15.748Z,84.18
2018-09-24T19:43:48.455Z,83.39
2018-09-24T19:46:21.113Z,82.98
2018-09-24T19:48:54.261Z,83.45
2018-09-24T19:51:27.695Z,85.25
2018-09-24T19:54:00.974Z,84.87
2018-09-24T19:56:34.694Z,84.20
2018-09-24T19:59:07.875Z,85.28
2018-09-24T20:01:41.086Z,86.03
2018-09-24T20:04:13.862Z,85.70
2018-09-24T20:06:47.137Z,86.23
2018-09-24T20:09:20.543Z,86.20
2018-09-24T20:11:54.033Z,85.87
2018-09-24T20:14:27.015Z,86.29
2018-09-24T20:17:00.194Z,86.38
2018-09-24T20:19:32.796Z,86.17
2018-09-24T20:22:06.382Z,86.59
2018-09-24T20:24:39.172Z,86.23
2018-09-24T20:27:11.960Z,86.16
2018-09-24T20:29:44.832Z,87.80
2018-09-24T20:32:17.687Z,88.05
2018-09-24T20:34:50.669Z,88.50
2018-09-24T20:37:24.189Z,87.30
2018-09-24T20:39:57.144Z,86.19
2018-09-24T20:42:29.817Z,86.85
2018-09-24T20:45:02.643Z,87.73
2018-09-24T20:47:35.597Z,87.34
2018-09-24T20:50:08.205Z,87.74
2018-09-24T20:52:41.183Z,88.80
2018-09-24T20:55:13.808Z,88.62
2018-09-24T20:57:46.812Z,89.47
2018-09-24T21:00:19.944Z,89.46
2018-09-24T21:02:52.644Z,89.26
2018-09-24T21:05:25.849Z,89.45
2018-09-24T21:07:58.719Z,89.54
2018-09-24T21:10:31.919Z,89.91
2018-09-24T21:13:05.203Z,90.31
2018-09-24T21:15:38.176Z,89.31
2018-09-24T21:18:10.887Z,90.54
2018-09-24T21:20:44.097Z,90.97
2018-09-24T21:23:17.105Z,90.75
2018-09-24T21:25:50.292Z,90.15
2018-09-24T21:28:23.195Z,91.25
2018-09-24T21:30:55.892Z,92.44
2018-09-24T21:33:28.583Z,92.33
2018-09-24T21:36:01.579Z,93.23
2018-09-24T21:38:34.678Z,93.14
2018-09-24T21:41:07.516Z,93.35
2018-09-24T21:43:40.712Z,93.67
2018-09-24T21:46:14.096Z,94.18
2018-09-24T21:48:46.907Z,93.50
2018-09-24T21:51:19.822Z,93.52
2018-09-24T21:53:52.653Z,93.07
2018-09-24T21:56:25.407Z,93.23
2018-09-24T21:58:58.176Z,93.66
2018-09-24T22:01:30.957Z,93.63
2018-09-24T22:04:03.787Z,93.90
2018-09-24T22:06:36.536Z,93.96
2018-09-24T22:09:12.253Z,93.61
2018-09-24T22:11:45.004Z,93.75
2018-09-24T22:14:18.007Z,93.68
2018-09-24T22:16:50.804Z,94.39
2018-09-24T22:19:23.396Z,95.03
2018-09-24T22:21:56.045Z,94.37
2018-09-24T22:24:28.755Z,94.96
2018-09-24T22:27:01.552Z,95.14
2018-09-24T22:29:34.296Z,94.66
2018-09-24T22:32:07.075Z,94.75
2018-09-24T22:34:39.745Z,94.54
2018-09-24T22:37:12.655Z,94.63
2018-09-24T22:39:45.696Z,95.18
2018-09-24T22:42:18.559Z,93.46
2018-09-24T22:44:51.569Z,93.58
2018-09-24T22:47:24.297Z,93.88
2018-09-24T22:49:57.445Z,92.84
2018-09-24T22:52:30.159Z,93.09
2018-09-24T22:55:03.203Z,93.45
2018-09-24T22:57:35.789Z,93.06
2018-09-24T23:00:08.875Z,93.04
2018-09-24T23:02:48.331Z,93.62
2018-09-24T23:05:21.071Z,94.32
2018-09-24T23:07:53.703Z,94.16
2018-09-24T23:10:26.916Z,94.57
2018-09-24T23:12:59.647Z,93.60
2018-09-24T23:15:32.591Z,93.61
2018-09-24T23:18:05.244Z,93.48
2018-09-24T23:20:38.184Z,93.55
2018-09-24T23:23:11.152Z,93.85
2018-09-24T23:25:44.027Z,94.96
2018-09-24T23:28:16.631Z,94.56
2018-09-24T23:30:49.326Z,94.60
2018-09-24T23:33:22.607Z,94.01
2018-09-24T23:35:55.353Z,94.15
2018-09-24T23:38:28.584Z,94.78
2018-09-24T23:41:01.390Z,95.37
2018-09-24T23:43:34.348Z,95.22
2018-09-24T23:46:07.116Z,94.58
2018-09-24T23:48:39.860Z,94.20
2018-09-24T23:51:12.602Z,93.95
2018-09-24T23:53:45.575Z,93.99
2018-09-24T23:56:18.433Z,93.86
2018-09-24T23:58:51.460Z,94.47
